Terminal Aerodrome Forecast
Issued by NWS Flagstaff, AZ

Home | Current Version | Previous Version | Text Only | Print | Product List | Glossary On
Versions: 1 2 3 4 5 6 7 8 9 10 11 12 13 14
000
FTUS45 KFGZ 251725
TAFFLG
TAF
KFLG 251725Z 2518/2618 21016G26KT P6SM SKC
     FM260300 VRB05KT P6SM SCT040=

USA.gov is the U.S. government's official web portal to all federal, state and local government web resources and services.